sensor_id;sensor_type;location;lat;lon;timestamp;pressure;altitude;pressure_sealevel;temperature;humidity
65546;BME280;52177;55.968;37.498;2023-09-07T00:00:15;100170.91;;;10.05;69.30
65546;BME280;52177;55.968;37.498;2023-09-07T00:00:45;100177.06;;;10.06;69.26
65546;BME280;52177;55.968;37.498;2023-09-07T00:01:16;100178.75;;;10.07;69.17
65546;BME280;52177;55.968;37.498;2023-09-07T00:01:46;100177.88;;;10.06;69.16
65546;BME280;52177;55.968;37.498;2023-09-07T00:02:17;100168.25;;;10.05;69.22
65546;BME280;52177;55.968;37.498;2023-09-07T00:02:47;100171.06;;;10.04;69.30
65546;BME280;52177;55.968;37.498;2023-09-07T00:03:18;100178.06;;;10.05;69.24
65546;BME280;52177;55.968;37.498;2023-09-07T00:03:48;100175.41;;;10.05;69.12
65546;BME280;52177;55.968;37.498;2023-09-07T00:04:19;100180.53;;;10.06;69.05
65546;BME280;52177;55.968;37.498;2023-09-07T00:04:50;100175.41;;;10.05;69.18
65546;BME280;52177;55.968;37.498;2023-09-07T00:05:20;100179.88;;;10.04;69.26
65546;BME280;52177;55.968;37.498;2023-09-07T00:05:50;100180.06;;;10.03;69.26
65546;BME280;52177;55.968;37.498;2023-09-07T00:06:21;100177.53;;;10.01;69.25
65546;BME280;52177;55.968;37.498;2023-09-07T00:06:51;100177.38;;;10.03;69.21
65546;BME280;52177;55.968;37.498;2023-09-07T00:07:22;100183.69;;;10.02;69.18
65546;BME280;52177;55.968;37.498;2023-09-07T00:07:52;100177.72;;;10.00;69.33
65546;BME280;52177;55.968;37.498;2023-09-07T00:08:22;100176.88;;;9.99;69.33
65546;BME280;52177;55.968;37.498;2023-09-07T00:08:55;100182.19;;;9.99;69.36
65546;BME280;52177;55.968;37.498;2023-09-07T00:09:27;100182.19;;;9.99;69.40
65546;BME280;52177;55.968;37.498;2023-09-07T00:09:57;100176.19;;;9.97;69.30
65546;BME280;52177;55.968;37.498;2023-09-07T00:10:28;100175.34;;;9.97;69.49
65546;BME280;52177;55.968;37.498;2023-09-07T00:11:05;100176.19;;;9.97;69.44
65546;BME280;52177;55.968;37.498;2023-09-07T00:11:36;100183.34;;;9.97;69.59
65546;BME280;52177;55.968;37.498;2023-09-07T00:12:06;100180.88;;;9.95;69.61
65546;BME280;52177;55.968;37.498;2023-09-07T00:12:36;100184.50;;;9.94;69.86
65546;BME280;52177;55.968;37.498;2023-09-07T00:13:09;100180.19;;;9.93;69.86
65546;BME280;52177;55.968;37.498;2023-09-07T00:13:39;100187.16;;;9.94;69.71
65546;BME280;52177;55.968;37.498;2023-09-07T00:14:10;100183.69;;;9.93;69.88
65546;BME280;52177;55.968;37.498;2023-09-07T00:14:40;100186.66;;;9.90;69.94
65546;BME280;52177;55.968;37.498;2023-09-07T00:15:11;100182.31;;;9.89;70.10
65546;BME280;52177;55.968;37.498;2023-09-07T00:15:41;100185.13;;;9.88;70.23
65546;BME280;52177;55.968;37.498;2023-09-07T00:16:11;100179.81;;;9.88;70.18
65546;BME280;52177;55.968;37.498;2023-09-07T00:16:42;100177.16;;;9.88;69.99
65546;BME280;52177;55.968;37.498;2023-09-07T00:17:12;100180.50;;;9.90;70.00
65546;BME280;52177;55.968;37.498;2023-09-07T00:17:43;100176.03;;;9.90;70.04
65546;BME280;52177;55.968;37.498;2023-09-07T00:18:14;100179.50;;;9.91;70.02
65546;BME280;52177;55.968;37.498;2023-09-07T00:18:44;100184.66;;;9.92;70.01
65546;BME280;52177;55.968;37.498;2023-09-07T00:19:15;100184.66;;;9.92;69.96
65546;BME280;52177;55.968;37.498;2023-09-07T00:19:45;100185.81;;;9.90;70.29
65546;BME280;52177;55.968;37.498;2023-09-07T00:20:19;100184.00;;;9.90;70.18
65546;BME280;52177;55.968;37.498;2023-09-07T00:20:49;100186.66;;;9.90;70.19
65546;BME280;52177;55.968;37.498;2023-09-07T00:21:20;100182.16;;;9.91;70.14
65546;BME280;52177;55.968;37.498;2023-09-07T00:21:50;100182.16;;;9.91;70.30
65546;BME280;52177;55.968;37.498;2023-09-07T00:22:22;100183.34;;;9.88;70.32
65546;BME280;52177;55.968;37.498;2023-09-07T00:22:52;100180.66;;;9.88;70.30
65546;BME280;52177;55.968;37.498;2023-09-07T00:23:22;100180.50;;;9.90;70.28
65546;BME280;52177;55.968;37.498;2023-09-07T00:23:53;100181.16;;;9.92;70.33
65546;BME280;52177;55.968;37.498;2023-09-07T00:24:23;100181.16;;;9.92;70.29
65546;BME280;52177;55.968;37.498;2023-09-07T00:24:54;100181.16;;;9.92;70.40
65546;BME280;52177;55.968;37.498;2023-09-07T00:25:24;100183.81;;;9.92;70.31
65546;BME280;52177;55.968;37.498;2023-09-07T00:25:55;100183.81;;;9.92;70.24
65546;BME280;52177;55.968;37.498;2023-09-07T00:26:25;100177.69;;;9.91;70.29
65546;BME280;52177;55.968;37.498;2023-09-07T00:26:55;100186.66;;;9.90;70.42
65546;BME280;52177;55.968;37.498;2023-09-07T00:27:26;100184.00;;;9.90;70.49
65546;BME280;52177;55.968;37.498;2023-09-07T00:27:56;100180.50;;;9.90;70.45
65546;BME280;52177;55.968;37.498;2023-09-07T00:28:27;100182.31;;;9.89;70.40
65546;BME280;52177;55.968;37.498;2023-09-07T00:28:57;100181.50;;;9.89;70.58
65546;BME280;52177;55.968;37.498;2023-09-07T00:29:27;100181.66;;;9.87;70.55
65546;BME280;52177;55.968;37.498;2023-09-07T00:29:58;100180.13;;;9.85;70.71
65546;BME280;52177;55.968;37.498;2023-09-07T00:30:28;100189.13;;;9.84;70.66
65546;BME280;52177;55.968;37.498;2023-09-07T00:30:58;100190.09;;;9.83;70.78
65546;BME280;52177;55.968;37.498;2023-09-07T00:31:29;100187.31;;;9.84;70.63
65546;BME280;52177;55.968;37.498;2023-09-07T00:31:59;100188.13;;;9.85;70.65
65546;BME280;52177;55.968;37.498;2023-09-07T00:32:32;100189.97;;;9.84;70.64
65546;BME280;52177;55.968;37.498;2023-09-07T00:33:03;100193.44;;;9.85;70.79
65546;BME280;52177;55.968;37.498;2023-09-07T00:33:34;100185.47;;;9.85;70.68
65546;BME280;52177;55.968;37.498;2023-09-07T00:34:04;100197.81;;;9.86;70.68
65546;BME280;52177;55.968;37.498;2023-09-07T00:34:35;100192.63;;;9.84;70.85
65546;BME280;52177;55.968;37.498;2023-09-07T00:35:05;100198.78;;;9.85;70.74
65546;BME280;52177;55.968;37.498;2023-09-07T00:35:36;100197.94;;;9.84;70.85
65546;BME280;52177;55.968;37.498;2023-09-07T00:36:07;100199.78;;;9.84;70.79
65546;BME280;52177;55.968;37.498;2023-09-07T00:36:37;100195.28;;;9.84;70.87
65546;BME280;52177;55.968;37.498;2023-09-07T00:37:07;100195.44;;;9.83;70.94
65546;BME280;52177;55.968;37.498;2023-09-07T00:37:38;100190.09;;;9.83;70.95
65546;BME280;52177;55.968;37.498;2023-09-07T00:38:08;100197.94;;;9.84;70.94
65546;BME280;52177;55.968;37.498;2023-09-07T00:38:39;100202.44;;;9.84;70.92
65546;BME280;52177;55.968;37.498;2023-09-07T00:39:10;100196.28;;;9.83;71.02
65546;BME280;52177;55.968;37.498;2023-09-07T00:39:40;100202.44;;;9.84;71.04
65546;BME280;52177;55.968;37.498;2023-09-07T00:40:11;100197.94;;;9.84;71.07
65546;BME280;52177;55.968;37.498;2023-09-07T00:40:44;100205.13;;;9.84;71.11
65546;BME280;52177;55.968;37.498;2023-09-07T00:41:17;100203.28;;;9.84;70.99
65546;BME280;52177;55.968;37.498;2023-09-07T00:41:48;100199.78;;;9.84;70.90
65546;BME280;52177;55.968;37.498;2023-09-07T00:42:19;100206.75;;;9.85;70.92
65546;BME280;52177;55.968;37.498;2023-09-07T00:42:49;100201.63;;;9.83;70.86
65546;BME280;52177;55.968;37.498;2023-09-07T00:43:20;100206.94;;;9.83;71.09
65546;BME280;52177;55.968;37.498;2023-09-07T00:43:50;100205.25;;;9.82;71.13
65546;BME280;52177;55.968;37.498;2023-09-07T00:44:21;100204.59;;;9.80;71.19
65546;BME280;52177;55.968;37.498;2023-09-07T00:44:51;100209.91;;;9.80;71.28
65546;BME280;52177;55.968;37.498;2023-09-07T00:45:22;100211.75;;;9.80;71.44
65546;BME280;52177;55.968;37.498;2023-09-07T00:45:52;100202.25;;;9.77;71.40
65546;BME280;52177;55.968;37.498;2023-09-07T00:46:23;100203.22;;;9.76;71.43
65546;BME280;52177;55.968;37.498;2023-09-07T00:46:54;100207.91;;;9.74;71.60
65546;BME280;52177;55.968;37.498;2023-09-07T00:47:24;100213.03;;;9.76;71.50
65546;BME280;52177;55.968;37.498;2023-09-07T00:47:54;100211.22;;;9.76;71.66
65546;BME280;52177;55.968;37.498;2023-09-07T00:48:25;100216.53;;;9.76;71.70
65546;BME280;52177;55.968;37.498;2023-09-07T00:48:56;100216.72;;;9.75;71.71
65546;BME280;52177;55.968;37.498;2023-09-07T00:49:27;100215.72;;;9.76;71.68
65546;BME280;52177;55.968;37.498;2023-09-07T00:49:58;100211.53;;;9.73;71.70
65546;BME280;52177;55.968;37.498;2023-09-07T00:50:28;100216.03;;;9.72;71.84
65546;BME280;52177;55.968;37.498;2023-09-07T00:50:59;100215.34;;;9.70;71.87
65546;BME280;52177;55.968;37.498;2023-09-07T00:51:31;100217.19;;;9.70;72.03
65546;BME280;52177;55.968;37.498;2023-09-07T00:52:02;100220.81;;;9.69;72.07
65546;BME280;52177;55.968;37.498;2023-09-07T00:52:33;100225.31;;;9.68;72.26
65546;BME280;52177;55.968;37.498;2023-09-07T00:53:04;100226.16;;;9.69;72.20
65546;BME280;52177;55.968;37.498;2023-09-07T00:53:36;100217.34;;;9.68;72.14
65546;BME280;52177;55.968;37.498;2023-09-07T00:54:07;100215.69;;;9.67;72.15
65546;BME280;52177;55.968;37.498;2023-09-07T00:54:38;100218.16;;;9.69;72.23
65546;BME280;52177;55.968;37.498;2023-09-07T00:55:11;100219.16;;;9.68;72.09
65546;BME280;52177;55.968;37.498;2023-09-07T00:55:42;100227.97;;;9.68;72.23
65546;BME280;52177;55.968;37.498;2023-09-07T00:56:13;100222.84;;;9.67;72.45
65546;BME280;52177;55.968;37.498;2023-09-07T00:56:44;100221.00;;;9.67;72.30
65546;BME280;52177;55.968;37.498;2023-09-07T00:57:14;100227.31;;;9.66;72.62
65546;BME280;52177;55.968;37.498;2023-09-07T00:57:45;100221.16;;;9.66;72.53
65546;BME280;52177;55.968;37.498;2023-09-07T00:58:15;100224.63;;;9.66;72.51
65546;BME280;52177;55.968;37.498;2023-09-07T00:58:46;100222.84;;;9.67;72.50
65546;BME280;52177;55.968;37.498;2023-09-07T00:59:16;100222.84;;;9.67;72.50
65546;BME280;52177;55.968;37.498;2023-09-07T00:59:47;100227.31;;;9.66;72.47
65546;BME280;52177;55.968;37.498;2023-09-07T01:00:17;100224.63;;;9.66;72.57
65546;BME280;52177;55.968;37.498;2023-09-07T01:00:48;100229.13;;;9.66;72.70
65546;BME280;52177;55.968;37.498;2023-09-07T01:01:18;100232.81;;;9.65;72.70
65546;BME280;52177;55.968;37.498;2023-09-07T01:01:49;100231.94;;;9.64;72.69
65546;BME280;52177;55.968;37.498;2023-09-07T01:02:19;100228.31;;;9.65;72.68
65546;BME280;52177;55.968;37.498;2023-09-07T01:02:50;100230.97;;;9.65;72.70
65546;BME280;52177;55.968;37.498;2023-09-07T01:03:20;100233.63;;;9.65;72.56
65546;BME280;52177;55.968;37.498;2023-09-07T01:03:50;100230.97;;;9.65;72.61
65546;BME280;52177;55.968;37.498;2023-09-07T01:04:21;100231.13;;;9.64;72.73
65546;BME280;52177;55.968;37.498;2023-09-07T01:04:52;100232.94;;;9.63;72.76
65546;BME280;52177;55.968;37.498;2023-09-07T01:05:34;100231.13;;;9.64;72.83
65546;BME280;52177;55.968;37.498;2023-09-07T01:06:23;100238.41;;;9.62;72.96
65546;BME280;52177;55.968;37.498;2023-09-07T01:07:02;100235.94;;;9.60;73.24
65546;BME280;52177;55.968;37.498;2023-09-07T01:07:40;100232.59;;;9.58;73.33
65546;BME280;52177;55.968;37.498;2023-09-07T01:08:22;100238.06;;;9.57;73.48
65546;BME280;52177;55.968;37.498;2023-09-07T01:08:55;100236.22;;;9.57;73.45
65546;BME280;52177;55.968;37.498;2023-09-07T01:09:30;100230.22;;;9.55;73.43
65546;BME280;52177;55.968;37.498;2023-09-07T01:10:02;100231.06;;;9.56;73.52
65546;BME280;52177;55.968;37.498;2023-09-07T01:10:33;100235.53;;;9.55;73.47
65546;BME280;52177;55.968;37.498;2023-09-07T01:11:15;100231.75;;;9.58;73.52
65546;BME280;52177;55.968;37.498;2023-09-07T01:11:47;100232.75;;;9.57;73.65
65546;BME280;52177;55.968;37.498;2023-09-07T01:12:17;100227.25;;;9.58;73.63
65546;BME280;52177;55.968;37.498;2023-09-07T01:12:48;100232.59;;;9.58;73.46
65546;BME280;52177;55.968;37.498;2023-09-07T01:13:19;100232.59;;;9.58;73.58
65546;BME280;52177;55.968;37.498;2023-09-07T01:13:50;100237.91;;;9.58;73.50
65546;BME280;52177;55.968;37.498;2023-09-07T01:14:23;100231.59;;;9.59;73.42
65546;BME280;52177;55.968;37.498;2023-09-07T01:14:54;100233.56;;;9.57;73.49
65546;BME280;52177;55.968;37.498;2023-09-07T01:15:24;100236.41;;;9.56;73.75
65546;BME280;52177;55.968;37.498;2023-09-07T01:15:55;100231.91;;;9.56;73.83
65546;BME280;52177;55.968;37.498;2023-09-07T01:16:25;100231.22;;;9.54;73.79
65546;BME280;52177;55.968;37.498;2023-09-07T01:16:56;100236.56;;;9.54;73.88
65546;BME280;52177;55.968;37.498;2023-09-07T01:17:27;100235.72;;;9.54;73.92
65546;BME280;52177;55.968;37.498;2023-09-07T01:17:58;100233.06;;;9.54;74.04
65546;BME280;52177;55.968;37.498;2023-09-07T01:18:30;100233.06;;;9.54;74.11
65546;BME280;52177;55.968;37.498;2023-09-07T01:19:01;100228.72;;;9.52;74.22
65546;BME280;52177;55.968;37.498;2023-09-07T01:19:31;100239.22;;;9.54;74.05
65546;BME280;52177;55.968;37.498;2023-09-07T01:20:04;100236.56;;;9.54;73.98
65546;BME280;52177;55.968;37.498;2023-09-07T01:20:41;100233.75;;;9.56;73.94
65546;BME280;52177;55.968;37.498;2023-09-07T01:21:12;100236.41;;;9.56;73.90
65546;BME280;52177;55.968;37.498;2023-09-07T01:21:43;100232.88;;;9.55;73.87
65546;BME280;52177;55.968;37.498;2023-09-07T01:22:14;100239.06;;;9.56;73.92
65546;BME280;52177;55.968;37.498;2023-09-07T01:22:45;100236.56;;;9.54;74.07
65546;BME280;52177;55.968;37.498;2023-09-07T01:23:16;100238.38;;;9.54;74.09
65546;BME280;52177;55.968;37.498;2023-09-07T01:23:46;100232.88;;;9.55;74.01
65546;BME280;52177;55.968;37.498;2023-09-07T01:24:17;100240.03;;;9.55;74.02
65546;BME280;52177;55.968;37.498;2023-09-07T01:24:49;100240.22;;;9.53;74.29
65546;BME280;52177;55.968;37.498;2023-09-07T01:25:20;100239.53;;;9.51;74.28
65546;BME280;52177;55.968;37.498;2023-09-07T01:25:51;100242.34;;;9.49;74.32
65546;BME280;52177;55.968;37.498;2023-09-07T01:26:23;100237.16;;;9.48;74.33
65546;BME280;52177;55.968;37.498;2023-09-07T01:26:53;100240.69;;;9.48;74.45
65546;BME280;52177;55.968;37.498;2023-09-07T01:27:24;100237.34;;;9.46;74.50
65546;BME280;52177;55.968;37.498;2023-09-07T01:27:54;100234.69;;;9.46;74.39
65546;BME280;52177;55.968;37.498;2023-09-07T01:28:25;100239.16;;;9.46;74.42
65546;BME280;52177;55.968;37.498;2023-09-07T01:28:55;100234.81;;;9.45;74.53
65546;BME280;52177;55.968;37.498;2023-09-07T01:29:26;100233.16;;;9.44;74.76
65546;BME280;52177;55.968;37.498;2023-09-07T01:29:59;100239.47;;;9.43;74.72
65546;BME280;52177;55.968;37.498;2023-09-07T01:30:29;100244.78;;;9.43;74.80
65546;BME280;52177;55.968;37.498;2023-09-07T01:31:00;100240.28;;;9.43;74.82
65546;BME280;52177;55.968;37.498;2023-09-07T01:31:37;100236.97;;;9.41;75.22
65546;BME280;52177;55.968;37.498;2023-09-07T01:32:08;100240.47;;;9.42;75.15
65546;BME280;52177;55.968;37.498;2023-09-07T01:32:40;100243.13;;;9.42;75.11
65546;BME280;52177;55.968;37.498;2023-09-07T01:33:10;100243.97;;;9.42;75.01
65546;BME280;52177;55.968;37.498;2023-09-07T01:33:40;100248.28;;;9.43;74.97
65546;BME280;52177;55.968;37.498;2023-09-07T01:34:11;100251.63;;;9.45;74.71
65546;BME280;52177;55.968;37.498;2023-09-07T01:34:41;100251.47;;;9.47;74.83
65546;BME280;52177;55.968;37.498;2023-09-07T01:35:14;100251.63;;;9.45;75.17
65546;BME280;52177;55.968;37.498;2023-09-07T01:35:46;100248.97;;;9.45;75.18
65546;BME280;52177;55.968;37.498;2023-09-07T01:36:17;100251.47;;;9.47;75.12
65546;BME280;52177;55.968;37.498;2023-09-07T01:36:47;100249.34;;;9.50;74.89
65546;BME280;52177;55.968;37.498;2023-09-07T01:37:18;100250.88;;;9.53;74.82
65546;BME280;52177;55.968;37.498;2023-09-07T01:37:48;100254.34;;;9.54;74.84
65546;BME280;52177;55.968;37.498;2023-09-07T01:38:18;100249.84;;;9.54;74.82
65546;BME280;52177;55.968;37.498;2023-09-07T01:38:49;100247.06;;;9.56;75.01
65546;BME280;52177;55.968;37.498;2023-09-07T01:39:19;100247.06;;;9.56;74.84
65546;BME280;52177;55.968;37.498;2023-09-07T01:39:50;100253.19;;;9.56;75.12
65546;BME280;52177;55.968;37.498;2023-09-07T01:40:20;100254.03;;;9.57;74.99
65546;BME280;52177;55.968;37.498;2023-09-07T01:40:50;100247.72;;;9.58;75.07
65546;BME280;52177;55.968;37.498;2023-09-07T01:41:21;100254.56;;;9.60;75.01
65546;BME280;52177;55.968;37.498;2023-09-07T01:41:51;100260.72;;;9.61;75.10
65546;BME280;52177;55.968;37.498;2023-09-07T01:42:22;100256.06;;;9.63;74.97
65546;BME280;52177;55.968;37.498;2023-09-07T01:42:52;100250.56;;;9.64;74.90
65546;BME280;52177;55.968;37.498;2023-09-07T01:43:22;100255.75;;;9.66;74.91
65546;BME280;52177;55.968;37.498;2023-09-07T01:43:53;100264.75;;;9.65;75.22
65546;BME280;52177;55.968;37.498;2023-09-07T01:44:23;100256.59;;;9.66;75.22
65546;BME280;52177;55.968;37.498;2023-09-07T01:44:54;100264.44;;;9.68;75.16
65546;BME280;52177;55.968;37.498;2023-09-07T01:45:24;100259.59;;;9.71;74.83
65546;BME280;52177;55.968;37.498;2023-09-07T01:45:55;100264.78;;;9.73;74.76
65546;BME280;52177;55.968;37.498;2023-09-07T01:46:25;100262.94;;;9.73;74.88
65546;BME280;52177;55.968;37.498;2023-09-07T01:46:55;100256.66;;;9.75;74.79
65546;BME280;52177;55.968;37.498;2023-09-07T01:47:26;100266.28;;;9.76;75.04
65546;BME280;52177;55.968;37.498;2023-09-07T01:47:58;100261.97;;;9.75;74.99
65546;BME280;52177;55.968;37.498;2023-09-07T01:48:29;100261.97;;;9.75;75.09
65546;BME280;52177;55.968;37.498;2023-09-07T01:48:59;100260.13;;;9.75;75.08
65546;BME280;52177;55.968;37.498;2023-09-07T01:49:29;100265.31;;;9.77;75.28
65546;BME280;52177;55.968;37.498;2023-09-07T01:50:00;100271.47;;;9.77;75.20
65546;BME280;52177;55.968;37.498;2023-09-07T01:50:30;100263.34;;;9.79;75.18
65546;BME280;52177;55.968;37.498;2023-09-07T01:51:01;100256.84;;;9.81;74.73
65546;BME280;52177;55.968;37.498;2023-09-07T01:51:32;100262.00;;;9.83;74.94
65546;BME280;52177;55.968;37.498;2023-09-07T01:52:02;100262.00;;;9.83;75.00
65546;BME280;52177;55.968;37.498;2023-09-07T01:52:33;100253.72;;;9.86;74.71
65546;BME280;52177;55.968;37.498;2023-09-07T01:53:03;100259.69;;;9.88;74.70
65546;BME280;52177;55.968;37.498;2023-09-07T01:53:34;100265.03;;;9.88;74.63
65546;BME280;52177;55.968;37.498;2023-09-07T01:54:05;100262.53;;;9.86;74.84
65546;BME280;52177;55.968;37.498;2023-09-07T01:54:35;100275.69;;;9.88;74.65
65546;BME280;52177;55.968;37.498;2023-09-07T01:55:06;100270.34;;;9.88;74.51
65546;BME280;52177;55.968;37.498;2023-09-07T01:55:36;100260.38;;;9.90;74.58
65546;BME280;52177;55.968;37.498;2023-09-07T01:56:07;100260.56;;;9.88;74.71
65546;BME280;52177;55.968;37.498;2023-09-07T01:56:37;100259.69;;;9.88;74.79
65546;BME280;52177;55.968;37.498;2023-09-07T01:57:09;100270.53;;;9.86;74.78
65546;BME280;52177;55.968;37.498;2023-09-07T01:57:39;100269.69;;;9.86;74.70
65546;BME280;52177;55.968;37.498;2023-09-07T01:58:10;100271.69;;;9.84;74.68
65546;BME280;52177;55.968;37.498;2023-09-07T01:58:40;100267.34;;;9.83;74.91
65546;BME280;52177;55.968;37.498;2023-09-07T01:59:11;100269.31;;;9.81;74.86
65546;BME280;52177;55.968;37.498;2023-09-07T01:59:41;100266.97;;;9.78;75.37
65546;BME280;52177;55.968;37.498;2023-09-07T02:00:12;100270.66;;;9.77;75.29
65546;BME280;52177;55.968;37.498;2023-09-07T02:00:42;100265.47;;;9.75;75.41
65546;BME280;52177;55.968;37.498;2023-09-07T02:01:27;100264.47;;;9.76;75.40
65546;BME280;52177;55.968;37.498;2023-09-07T02:01:59;100263.81;;;9.74;75.67
65546;BME280;52177;55.968;37.498;2023-09-07T02:02:30;100266.28;;;9.76;75.46
65546;BME280;52177;55.968;37.498;2023-09-07T02:03:00;100269.97;;;9.75;75.35
65546;BME280;52177;55.968;37.498;2023-09-07T02:03:30;100267.31;;;9.75;75.15
65546;BME280;52177;55.968;37.498;2023-09-07T02:04:01;100263.81;;;9.74;75.33
65546;BME280;52177;55.968;37.498;2023-09-07T02:04:31;100266.94;;;9.69;75.94
65546;BME280;52177;55.968;37.498;2023-09-07T02:05:02;100266.41;;;9.66;75.94
65546;BME280;52177;55.968;37.498;2023-09-07T02:05:32;100265.25;;;9.68;75.60
65546;BME280;52177;55.968;37.498;2023-09-07T02:06:03;100260.94;;;9.67;75.79
65546;BME280;52177;55.968;37.498;2023-09-07T02:06:33;100258.75;;;9.63;75.99
65546;BME280;52177;55.968;37.498;2023-09-07T02:07:04;100260.88;;;9.59;76.11
65546;BME280;52177;55.968;37.498;2023-09-07T02:07:34;100264.53;;;9.58;76.40
65546;BME280;52177;55.968;37.498;2023-09-07T02:08:05;100270.00;;;9.57;76.30
65546;BME280;52177;55.968;37.498;2023-09-07T02:08:35;100262.00;;;9.57;76.35
65546;BME280;52177;55.968;37.498;2023-09-07T02:09:05;100267.19;;;9.58;76.20
65546;BME280;52177;55.968;37.498;2023-09-07T02:09:36;100269.16;;;9.56;76.29
65546;BME280;52177;55.968;37.498;2023-09-07T02:10:08;100269.16;;;9.56;76.23
65546;BME280;52177;55.968;37.498;2023-09-07T02:10:38;100269.50;;;9.53;76.51
65546;BME280;52177;55.968;37.498;2023-09-07T02:11:09;100275.47;;;9.55;76.11
65546;BME280;52177;55.968;37.498;2023-09-07T02:11:40;100264.00;;;9.55;76.37
65546;BME280;52177;55.968;37.498;2023-09-07T02:12:11;100267.34;;;9.57;76.05
65546;BME280;52177;55.968;37.498;2023-09-07T02:12:41;100274.63;;;9.55;76.13
65546;BME280;52177;55.968;37.498;2023-09-07T02:13:12;100274.13;;;9.51;76.45
65546;BME280;52177;55.968;37.498;2023-09-07T02:13:43;100275.28;;;9.48;76.28
65546;BME280;52177;55.968;37.498;2023-09-07T02:14:13;100274.81;;;9.53;76.21
65546;BME280;52177;55.968;37.498;2023-09-07T02:14:44;100270.47;;;9.52;76.13
65546;BME280;52177;55.968;37.498;2023-09-07T02:15:14;100269.50;;;9.53;76.08
65546;BME280;52177;55.968;37.498;2023-09-07T02:15:44;100271.63;;;9.49;76.49
65546;BME280;52177;55.968;37.498;2023-09-07T02:16:15;100277.94;;;9.48;76.16
65546;BME280;52177;55.968;37.498;2023-09-07T02:16:46;100278.78;;;9.49;76.15
65546;BME280;52177;55.968;37.498;2023-09-07T02:17:16;100276.25;;;9.47;76.26
65546;BME280;52177;55.968;37.498;2023-09-07T02:17:48;100275.44;;;9.47;76.35
65546;BME280;52177;55.968;37.498;2023-09-07T02:18:18;100270.25;;;9.45;76.19
65546;BME280;52177;55.968;37.498;2023-09-07T02:18:50;100274.88;;;9.43;76.20
65546;BME280;52177;55.968;37.498;2023-09-07T02:19:20;100275.88;;;9.42;76.36
65546;BME280;52177;55.968;37.498;2023-09-07T02:19:52;100273.91;;;9.44;76.22
65546;BME280;52177;55.968;37.498;2023-09-07T02:20:23;100271.56;;;9.41;76.45
65546;BME280;52177;55.968;37.498;2023-09-07T02:20:53;100280.38;;;9.42;76.38
65546;BME280;52177;55.968;37.498;2023-09-07T02:21:23;100278.56;;;9.42;76.48
65546;BME280;52177;55.968;37.498;2023-09-07T02:21:54;100282.03;;;9.43;76.25
65546;BME280;52177;55.968;37.498;2023-09-07T02:22:24;100284.69;;;9.43;76.34
65546;BME280;52177;55.968;37.498;2023-09-07T02:22:55;100284.56;;;9.44;76.12
65546;BME280;52177;55.968;37.498;2023-09-07T02:23:25;100282.03;;;9.43;76.21
65546;BME280;52177;55.968;37.498;2023-09-07T02:23:55;100291.03;;;9.42;76.39
65546;BME280;52177;55.968;37.498;2023-09-07T02:24:26;100275.88;;;9.42;76.16
65546;BME280;52177;55.968;37.498;2023-09-07T02:24:56;100285.72;;;9.42;76.20
65546;BME280;52177;55.968;37.498;2023-09-07T02:25:27;100278.69;;;9.41;76.40
65546;BME280;52177;55.968;37.498;2023-09-07T02:26:00;100285.84;;;9.40;76.53
65546;BME280;52177;55.968;37.498;2023-09-07T02:26:31;100282.34;;;9.40;76.54
65546;BME280;52177;55.968;37.498;2023-09-07T02:27:01;100287.38;;;9.43;76.26
65546;BME280;52177;55.968;37.498;2023-09-07T02:27:32;100283.34;;;9.39;76.75
65546;BME280;52177;55.968;37.498;2023-09-07T02:28:03;100293.16;;;9.38;76.64
65546;BME280;52177;55.968;37.498;2023-09-07T02:28:34;100287.31;;;9.35;76.82
65546;BME280;52177;55.968;37.498;2023-09-07T02:29:04;100293.59;;;9.34;76.84
65546;BME280;52177;55.968;37.498;2023-09-07T02:29:36;100289.97;;;9.35;76.69
65546;BME280;52177;55.968;37.498;2023-09-07T02:30:07;100288.13;;;9.35;76.48
65546;BME280;52177;55.968;37.498;2023-09-07T02:30:38;100292.63;;;9.35;76.61
65546;BME280;52177;55.968;37.498;2023-09-07T02:31:08;100291.63;;;9.36;76.37
65546;BME280;52177;55.968;37.498;2023-09-07T02:31:39;100294.47;;;9.34;76.57
65546;BME280;52177;55.968;37.498;2023-09-07T02:32:10;100297.28;;;9.33;76.69
65546;BME280;52177;55.968;37.498;2023-09-07T02:32:42;100298.09;;;9.33;76.70
65546;BME280;52177;55.968;37.498;2023-09-07T02:33:13;100289.75;;;9.28;76.88
65546;BME280;52177;55.968;37.498;2023-09-07T02:33:43;100300.72;;;9.25;77.13
65546;BME280;52177;55.968;37.498;2023-09-07T02:34:14;100294.06;;;9.29;76.87
65546;BME280;52177;55.968;37.498;2023-09-07T02:34:44;100300.25;;;9.29;76.67
65546;BME280;52177;55.968;37.498;2023-09-07T02:35:14;100301.22;;;9.28;76.76
65546;BME280;52177;55.968;37.498;2023-09-07T02:35:45;100293.56;;;9.25;76.79
65546;BME280;52177;55.968;37.498;2023-09-07T02:36:17;100294.38;;;9.26;76.75
65546;BME280;52177;55.968;37.498;2023-09-07T02:36:48;100301.53;;;9.25;76.80
65546;BME280;52177;55.968;37.498;2023-09-07T02:37:18;100295.53;;;9.23;76.94
65546;BME280;52177;55.968;37.498;2023-09-07T02:37:48;100298.31;;;9.22;77.12
65546;BME280;52177;55.968;37.498;2023-09-07T02:38:19;100298.50;;;9.20;77.21
65546;BME280;52177;55.968;37.498;2023-09-07T02:38:49;100301.00;;;9.22;77.11
65546;BME280;52177;55.968;37.498;2023-09-07T02:39:19;100297.50;;;9.21;77.05
65546;BME280;52177;55.968;37.498;2023-09-07T02:39:50;100299.16;;;9.22;77.07
65546;BME280;52177;55.968;37.498;2023-09-07T02:40:20;100300.84;;;9.23;76.93
65546;BME280;52177;55.968;37.498;2023-09-07T02:40:51;100301.69;;;9.24;76.96
65546;BME280;52177;55.968;37.498;2023-09-07T02:41:23;100299.03;;;9.24;77.03
65546;BME280;52177;55.968;37.498;2023-09-07T02:41:53;100304.19;;;9.25;76.91
65546;BME280;52177;55.968;37.498;2023-09-07T02:42:23;100302.38;;;9.26;76.90